createdAt,value
2018-11-04T00:00:25.930Z,1004.99
2018-11-04T00:01:36.086Z,1005.01
2018-11-04T00:02:46.200Z,1005.04
2018-11-04T00:03:56.290Z,1005.03
2018-11-04T00:05:06.416Z,1004.99
2018-11-04T00:06:16.478Z,1004.93
2018-11-04T00:07:26.554Z,1004.9
2018-11-04T00:08:36.109Z,1004.93
2018-11-04T00:09:45.912Z,1004.87
2018-11-04T00:10:55.984Z,1004.89
2018-11-04T00:12:05.794Z,1004.91
2018-11-04T00:13:15.940Z,1004.88
2018-11-04T00:14:26.140Z,1004.93
2018-11-04T00:15:35.697Z,1004.9
2018-11-04T00:16:45.543Z,1004.98
2018-11-04T00:17:55.105Z,1004.91
2018-11-04T00:19:05.212Z,1004.89
2018-11-04T00:20:15.083Z,1004.94
2018-11-04T00:21:24.850Z,1004.92
2018-11-04T00:22:34.975Z,1004.91
2018-11-04T00:23:44.770Z,1004.9
2018-11-04T00:24:55.042Z,1004.93
2018-11-04T00:26:04.880Z,1004.89
2018-11-04T00:27:14.878Z,1004.9
2018-11-04T00:28:25.107Z,1004.87
2018-11-04T00:29:34.982Z,1004.86
2018-11-04T00:30:45.035Z,1004.84
2018-11-04T00:31:54.858Z,1004.82
2018-11-04T00:33:04.149Z,1004.87
2018-11-04T00:34:14.014Z,1004.81
2018-11-04T00:35:24.188Z,1004.85
2018-11-04T00:36:34.007Z,1004.81
2018-11-04T00:37:43.829Z,1004.81
2018-11-04T00:38:53.644Z,1004.8
2018-11-04T00:40:03.721Z,1004.79
2018-11-04T00:41:13.520Z,1004.72
2018-11-04T00:42:23.592Z,1004.73
2018-11-04T00:43:33.149Z,1004.73
2018-11-04T00:44:42.700Z,1004.73
2018-11-04T00:45:52.502Z,1004.75
2018-11-04T00:47:02.308Z,1004.75
2018-11-04T00:48:12.103Z,1004.75
2018-11-04T00:49:21.715Z,1004.71
2018-11-04T00:50:31.532Z,1004.73
2018-11-04T00:51:41.399Z,1004.72
2018-11-04T00:52:51.480Z,1004.67
2018-11-04T00:54:01.307Z,1004.66
2018-11-04T00:55:11.398Z,1004.63
2018-11-04T00:56:20.955Z,1004.64
2018-11-04T00:57:30.818Z,1004.67
2018-11-04T00:58:40.896Z,1004.65
2018-11-04T00:59:50.970Z,1004.65
2018-11-04T01:01:03.374Z,1004.61
2018-11-04T01:02:12.947Z,1004.59
2018-11-04T01:03:22.499Z,1004.64
2018-11-04T01:04:32.319Z,1004.6
2018-11-04T01:05:42.121Z,1004.58
2018-11-04T01:06:52.260Z,1004.58
2018-11-04T01:08:02.356Z,1004.57
2018-11-04T01:09:12.264Z,1004.53
2018-11-04T01:10:22.489Z,1004.52
2018-11-04T01:11:32.035Z,1004.56
2018-11-04T01:12:42.105Z,1004.59
2018-11-04T01:13:51.690Z,1004.59
2018-11-04T01:15:01.523Z,1004.55
2018-11-04T01:16:11.604Z,1004.57
2018-11-04T01:17:21.431Z,1004.54
2018-11-04T01:18:31.247Z,1004.52
2018-11-04T01:19:41.341Z,1004.52
2018-11-04T01:20:51.479Z,1004.52
2018-11-04T01:22:01.755Z,1004.53
2018-11-04T01:23:11.046Z,1004.53
2018-11-04T01:24:20.931Z,1004.48
2018-11-04T01:25:31.315Z,1004.48
2018-11-04T01:26:41.122Z,1004.48
2018-11-04T01:27:50.942Z,1004.45
2018-11-04T01:29:02.968Z,1004.43
2018-11-04T01:30:13.251Z,1004.38
2018-11-04T01:31:23.978Z,1004.36
2018-11-04T01:32:34.068Z,1004.37
2018-11-04T01:33:43.887Z,1004.4
2018-11-04T01:34:54.004Z,1004.38
2018-11-04T01:36:03.819Z,1004.36
2018-11-04T01:37:13.634Z,1004.31
2018-11-04T01:38:23.721Z,1004.25
2018-11-04T01:39:33.516Z,1004.22
2018-11-04T01:40:43.602Z,1004.24
2018-11-04T01:41:53.467Z,1004.18
2018-11-04T01:43:03.024Z,1004.21
2018-11-04T01:44:13.144Z,1004.19
2018-11-04T01:45:23.205Z,1004.13
2018-11-04T01:46:33.031Z,1004.1
2018-11-04T01:47:43.135Z,1004.08
2018-11-04T01:48:53.191Z,1004.08
2018-11-04T01:50:05.355Z,1004.07
2018-11-04T01:51:14.957Z,1004.01
2018-11-04T01:52:24.515Z,1003.99
2018-11-04T01:53:34.318Z,1003.98
2018-11-04T01:54:44.135Z,1003.92
2018-11-04T01:55:53.676Z,1003.92
2018-11-04T01:57:03.239Z,1003.93
2018-11-04T01:58:13.311Z,1003.93
2018-11-04T01:59:23.118Z,1003.91
2018-11-04T02:00:32.669Z,1003.85
2018-11-04T02:01:42.516Z,1003.86
2018-11-04T02:02:52.607Z,1003.83
2018-11-04T02:04:02.694Z,1003.84
2018-11-04T02:05:12.491Z,1003.85
2018-11-04T02:06:22.617Z,1003.88
2018-11-04T02:07:32.479Z,1003.85
2018-11-04T02:08:42.556Z,1003.84
2018-11-04T02:09:52.621Z,1003.87
2018-11-04T02:11:02.733Z,1003.92
2018-11-04T02:12:12.564Z,1003.87
2018-11-04T02:13:22.487Z,1003.84
2018-11-04T02:14:32.289Z,1003.84
2018-11-04T02:15:42.370Z,1003.82
2018-11-04T02:16:52.238Z,1003.82
2018-11-04T02:18:02.059Z,1003.79
2018-11-04T02:19:11.929Z,1003.77
2018-11-04T02:20:21.737Z,1003.77
2018-11-04T02:21:31.288Z,1003.74
2018-11-04T02:22:41.103Z,1003.75
2018-11-04T02:23:50.906Z,1003.75
2018-11-04T02:25:00.860Z,1003.73
2018-11-04T02:26:10.678Z,1003.7
2018-11-04T02:27:20.507Z,1003.72
2018-11-04T02:28:30.583Z,1003.73
2018-11-04T02:29:40.403Z,1003.74
2018-11-04T02:30:50.299Z,1003.73
2018-11-04T02:32:00.306Z,1003.75
2018-11-04T02:33:10.109Z,1003.79
2018-11-04T02:34:19.931Z,1003.8
2018-11-04T02:35:29.471Z,1003.75
2018-11-04T02:36:39.041Z,1003.79
2018-11-04T02:37:49.126Z,1003.75
2018-11-04T02:38:59.201Z,1003.75
2018-11-04T02:40:09.287Z,1003.77
2018-11-04T02:41:19.387Z,1003.85
2018-11-04T02:42:28.668Z,1003.84
2018-11-04T02:43:38.733Z,1003.84
2018-11-04T02:45:03.628Z,1003.83
2018-11-04T02:46:13.176Z,1003.82
2018-11-04T02:47:23.255Z,1003.82
2018-11-04T02:48:33.091Z,1003.76
2018-11-04T02:49:42.958Z,1003.75
2018-11-04T02:50:53.079Z,1003.76
2018-11-04T02:52:05.793Z,1003.75
2018-11-04T02:53:15.341Z,1003.77
2018-11-04T02:54:25.154Z,1003.75
2018-11-04T02:55:34.763Z,1003.74
2018-11-04T02:56:44.587Z,1003.74
2018-11-04T02:57:54.655Z,1003.77
2018-11-04T02:59:04.461Z,1003.75
2018-11-04T03:00:14.015Z,1003.74
2018-11-04T03:01:24.114Z,1003.72
2018-11-04T03:02:34.186Z,1003.69
2018-11-04T03:34:35.715Z,1003.55
2018-11-04T03:35:45.570Z,1003.58
2018-11-04T03:36:55.373Z,1003.57
2018-11-04T03:38:05.177Z,1003.55
2018-11-04T03:39:14.991Z,1003.49
2018-11-04T03:40:25.087Z,1003.52
2018-11-04T03:41:35.147Z,1003.51
2018-11-04T03:42:44.747Z,1003.48
2018-11-04T03:43:54.838Z,1003.52
2018-11-04T03:45:04.914Z,1003.45
2018-11-04T03:46:14.836Z,1003.49
2018-11-04T03:47:24.368Z,1003.46
2018-11-04T03:48:34.444Z,1003.45
2018-11-04T03:49:44.600Z,1003.42
2018-11-04T03:50:54.402Z,1003.42
2018-11-04T03:52:05.218Z,1003.42
2018-11-04T03:53:15.294Z,1003.4
2018-11-04T03:54:25.359Z,1003.43
2018-11-04T03:55:35.470Z,1003.43
2018-11-04T03:56:45.546Z,1003.43
2018-11-04T03:57:55.136Z,1003.39
2018-11-04T03:59:04.994Z,1003.36
2018-11-04T04:00:14.907Z,1003.39
2018-11-04T04:01:24.725Z,1003.4
2018-11-04T04:02:34.797Z,1003.38
2018-11-04T04:03:44.659Z,1003.34
2018-11-04T04:04:54.732Z,1003.32
2018-11-04T04:06:04.546Z,1003.34
2018-11-04T04:07:14.611Z,1003.29
2018-11-04T04:08:24.726Z,1003.28
2018-11-04T04:09:34.839Z,1003.22
2018-11-04T04:10:44.669Z,1003.19
2018-11-04T04:11:54.479Z,1003.19
2018-11-04T04:13:04.551Z,1003.17
2018-11-04T04:14:14.410Z,1003.2
2018-11-04T04:15:24.550Z,1003.17
2018-11-04T04:16:34.625Z,1003.18
2018-11-04T04:17:44.436Z,1003.14
2018-11-04T04:18:54.247Z,1003.09
2018-11-04T04:20:05.499Z,1003.12
2018-11-04T04:21:15.052Z,1003.11
2018-11-04T04:22:25.125Z,1003.11
2018-11-04T04:23:34.665Z,1003.14
2018-11-04T04:24:44.474Z,1003.14
2018-11-04T04:25:54.283Z,1003.14
2018-11-04T04:27:04.134Z,1003.16
2018-11-04T04:28:14.213Z,1003.16
2018-11-04T04:29:24.015Z,1003.19
2018-11-04T04:30:34.081Z,1003.19
2018-11-04T04:31:43.878Z,1003.26
2018-11-04T04:32:53.944Z,1003.23
2018-11-04T04:34:03.760Z,1003.25
2018-11-04T04:35:13.836Z,1003.25
2018-11-04T04:36:23.379Z,1003.26
2018-11-04T04:37:33.180Z,1003.26
2018-11-04T04:38:42.483Z,1003.24
2018-11-04T04:39:52.029Z,1003.22
2018-11-04T04:41:01.592Z,1003.18
2018-11-04T04:42:11.389Z,1003.15
2018-11-04T04:43:21.214Z,1003.13
2018-11-04T04:44:31.355Z,1003.07
2018-11-04T04:45:41.399Z,1003.06
2018-11-04T04:46:51.475Z,1003.08
2018-11-04T04:48:01.000Z,1003.07
2018-11-04T04:49:11.088Z,1003.03
2018-11-04T04:50:20.930Z,1003.06
2018-11-04T04:51:30.737Z,1003.01
2018-11-04T04:52:40.815Z,1003.06
2018-11-04T04:53:50.895Z,1003.03
2018-11-04T04:55:01.725Z,1003.01
2018-11-04T04:56:11.851Z,1002.98
2018-11-04T04:57:21.919Z,1002.96
2018-11-04T04:58:31.467Z,1002.95
2018-11-04T04:59:41.277Z,1002.9
2018-11-04T05:00:51.347Z,1002.89
2018-11-04T05:02:01.206Z,1002.91
2018-11-04T05:03:11.013Z,1002.93
2018-11-04T05:04:20.838Z,1002.89
2018-11-04T05:05:30.117Z,1002.82
2018-11-04T05:06:39.911Z,1002.79
2018-11-04T05:07:49.769Z,1002.81
2018-11-04T05:08:59.850Z,1002.81
2018-11-04T05:10:10.677Z,1002.84
2018-11-04T05:11:20.748Z,1002.88
2018-11-04T05:12:30.347Z,1002.88
2018-11-04T05:13:40.428Z,1002.88
2018-11-04T05:14:49.975Z,1002.85
2018-11-04T05:16:00.047Z,1002.78
2018-11-04T05:17:09.591Z,1002.77
2018-11-04T05:18:19.142Z,1002.76
2018-11-04T05:19:28.686Z,1002.77
2018-11-04T05:20:38.494Z,1002.77
2018-11-04T05:21:48.041Z,1002.74
2018-11-04T05:22:57.844Z,1002.8
2018-11-04T05:24:07.428Z,1002.85
2018-11-04T05:25:17.526Z,1002.89
2018-11-04T05:26:27.342Z,1002.85
2018-11-04T05:27:37.426Z,1002.91
2018-11-04T05:28:46.967Z,1002.9
2018-11-04T05:29:56.782Z,1002.93
2018-11-04T05:31:06.594Z,1002.97
2018-11-04T05:32:16.141Z,1002.96
2018-11-04T05:33:25.678Z,1002.98
2018-11-04T05:34:35.487Z,1002.98
2018-11-04T05:35:45.556Z,1003.01
2018-11-04T05:36:55.371Z,1002.98
2018-11-04T05:38:05.190Z,1002.94
2018-11-04T05:39:15.472Z,1002.94
2018-11-04T05:40:25.542Z,1002.9
2018-11-04T05:41:35.346Z,1002.87
2018-11-04T05:42:45.431Z,1002.89
2018-11-04T05:43:55.502Z,1002.89
2018-11-04T05:45:05.910Z,1002.92
2018-11-04T05:46:15.991Z,1002.91
2018-11-04T05:47:26.057Z,1002.91
2018-11-04T05:48:36.181Z,1002.87
2018-11-04T05:49:46.251Z,1002.95
2018-11-04T05:50:56.051Z,1002.93
2018-11-04T05:52:05.867Z,1002.96
2018-11-04T05:53:15.676Z,1002.95
2018-11-04T05:54:25.494Z,1002.96
2018-11-04T05:55:35.292Z,1002.97
2018-11-04T05:56:45.105Z,1002.98
2018-11-04T05:57:55.205Z,1002.98
2018-11-04T05:59:05.302Z,1002.95
2018-11-04T06:00:15.162Z,1002.98
2018-11-04T06:01:25.235Z,1003.01
2018-11-04T06:02:35.323Z,1002.95
2018-11-04T06:03:45.418Z,1002.99
2018-11-04T06:04:54.967Z,1003
2018-11-04T06:06:05.057Z,1003.07
2018-11-04T06:07:15.132Z,1003.02
2018-11-04T06:08:24.927Z,1003.07
2018-11-04T06:09:34.984Z,1003.13
2018-11-04T06:10:45.056Z,1003.12
2018-11-04T06:11:54.881Z,1003.14
2018-11-04T06:13:04.959Z,1003.07
2018-11-04T06:14:15.046Z,1003.12
2018-11-04T06:15:24.585Z,1003.11
2018-11-04T06:16:34.146Z,1003.09
2018-11-04T06:17:44.285Z,1003.15
2018-11-04T06:18:54.366Z,1003.12
2018-11-04T06:20:04.447Z,1003.15
2018-11-04T06:21:14.268Z,1003.12
2018-11-04T06:22:24.076Z,1003.13
2018-11-04T06:23:33.924Z,1003.12
2018-11-04T06:24:43.754Z,1003.13
2018-11-04T06:25:53.855Z,1003.15
2018-11-04T06:27:03.921Z,1003.17
2018-11-04T06:28:14.037Z,1003.15
2018-11-04T06:29:24.166Z,1003.14
2018-11-04T06:30:34.229Z,1003.15
2018-11-04T06:31:44.315Z,1003.17
2018-11-04T06:32:54.381Z,1003.11
2018-11-04T06:34:03.940Z,1003.1
2018-11-04T06:35:13.257Z,1003.05
2018-11-04T06:36:23.336Z,1003.07
2018-11-04T06:37:33.433Z,1003.11
2018-11-04T06:38:42.978Z,1003.08
2018-11-04T06:39:53.043Z,1003.12
2018-11-04T06:41:02.437Z,1003.14
2018-11-04T06:42:13.384Z,1003.16
2018-11-04T06:43:23.196Z,1003.09
2018-11-04T06:44:32.847Z,1003.08
2018-11-04T06:45:42.651Z,1003.08
2018-11-04T06:46:52.777Z,1003.09
2018-11-04T06:48:02.593Z,1003.08
2018-11-04T06:49:12.677Z,1003.05
2018-11-04T06:50:22.763Z,1003.07
2018-11-04T06:51:32.578Z,1003.04
2018-11-04T06:52:42.458Z,1003.04
2018-11-04T06:53:52.012Z,1003.02
2018-11-04T06:55:01.575Z,1003.03
2018-11-04T06:56:11.637Z,1003
2018-11-04T06:57:21.701Z,1003.02
2018-11-04T06:58:31.002Z,1002.97
2018-11-04T06:59:40.803Z,1003.03
2018-11-04T07:00:51.003Z,1003.02
2018-11-04T07:02:03.413Z,1002.97
2018-11-04T07:03:13.484Z,1002.97
2018-11-04T07:04:23.036Z,1002.99
2018-11-04T07:05:33.128Z,1002.96
2018-11-04T07:06:42.939Z,1002.93
2018-11-04T07:07:53.054Z,1002.95
2018-11-04T07:09:02.933Z,1003
2018-11-04T07:10:13.735Z,1003
2018-11-04T07:11:23.538Z,1003.01
2018-11-04T07:12:33.616Z,1003.01
2018-11-04T07:13:43.426Z,1003.03
2018-11-04T07:14:53.483Z,1003.03
2018-11-04T07:16:03.046Z,1003
2018-11-04T07:17:12.601Z,1003.02
2018-11-04T07:18:22.409Z,1003.01
2018-11-04T07:19:32.494Z,1003.01
2018-11-04T07:20:42.318Z,1003.03
2018-11-04T07:21:51.848Z,1003.03
2018-11-04T07:23:01.660Z,1003.04
2018-11-04T07:24:11.747Z,1003
2018-11-04T07:25:21.280Z,1003.03
2018-11-04T07:26:31.259Z,1003.03
2018-11-04T07:27:41.452Z,1002.99
2018-11-04T07:28:51.266Z,1003
2018-11-04T07:30:04.088Z,1003.02
2018-11-04T07:31:13.948Z,1002.97
2018-11-04T07:32:23.498Z,1002.97
2018-11-04T07:33:33.682Z,1003.01
2018-11-04T07:34:43.770Z,1002.98
2018-11-04T07:35:53.855Z,1002.99
2018-11-04T07:37:04.215Z,1003.03
2018-11-04T07:38:13.485Z,1003.03
2018-11-04T07:39:23.568Z,1003
2018-11-04T07:40:33.391Z,1003
2018-11-04T07:41:43.220Z,1003.01
2018-11-04T07:42:53.291Z,1002.99
2018-11-04T07:44:03.279Z,1003
2018-11-04T07:45:13.230Z,1002.98
2018-11-04T07:46:23.314Z,1003
2018-11-04T07:47:33.191Z,1002.93
2018-11-04T07:48:43.274Z,1002.96
2018-11-04T07:49:53.135Z,1002.98
2018-11-04T07:51:02.426Z,1002.97
2018-11-04T07:52:12.500Z,1002.96
2018-11-04T07:53:22.047Z,1002.97
2018-11-04T07:54:32.117Z,1002.98
2018-11-04T07:55:42.303Z,1003.01
2018-11-04T07:56:52.478Z,1002.99
2018-11-04T07:58:03.146Z,1003
2018-11-04T07:59:12.955Z,1002.99
2018-11-04T08:00:22.787Z,1002.97
2018-11-04T08:01:32.603Z,1002.97
2018-11-04T08:02:42.457Z,1002.96
2018-11-04T08:03:52.644Z,1002.99
2018-11-04T08:05:02.701Z,1002.95
2018-11-04T08:06:12.796Z,1002.99
2018-11-04T08:07:22.354Z,1002.96
2018-11-04T08:08:32.487Z,1002.91
2018-11-04T08:09:42.294Z,1002.98
2018-11-04T08:10:52.103Z,1002.91
2018-11-04T08:12:02.167Z,1002.93
2018-11-04T08:13:12.240Z,1002.92
2018-11-04T08:14:21.832Z,1002.91
2018-11-04T08:15:31.652Z,1002.86
2018-11-04T08:16:41.483Z,1002.89
2018-11-04T08:17:51.566Z,1002.85
2018-11-04T08:19:01.659Z,1002.89
2018-11-04T08:20:11.522Z,1002.87
2018-11-04T08:21:21.734Z,1002.91
2018-11-04T08:22:31.901Z,1002.87
2018-11-04T08:23:41.978Z,1002.83
2018-11-04T08:24:52.051Z,1002.81
2018-11-04T08:26:01.604Z,1002.78
2018-11-04T08:27:11.419Z,1002.78
2018-11-04T08:28:21.488Z,1002.82
2018-11-04T08:29:31.579Z,1002.85
2018-11-04T08:30:41.411Z,1002.81
2018-11-04T08:31:51.271Z,1002.81
2018-11-04T08:33:01.099Z,1002.8
2018-11-04T08:34:10.913Z,1002.79
2018-11-04T08:35:20.737Z,1002.83
2018-11-04T08:36:30.803Z,1002.81
2018-11-04T08:37:40.886Z,1002.78
2018-11-04T08:38:50.433Z,1002.81
2018-11-04T08:40:00.060Z,1002.83
2018-11-04T08:41:12.372Z,1002.77
2018-11-04T08:42:21.915Z,1002.77
2018-11-04T08:43:32.091Z,1002.76
2018-11-04T08:44:41.909Z,1002.74
2018-11-04T08:45:51.873Z,1002.74
2018-11-04T08:47:03.056Z,1002.72
2018-11-04T08:48:13.144Z,1002.74
2018-11-04T08:49:22.743Z,1002.71
2018-11-04T08:50:32.555Z,1002.71
2018-11-04T08:51:42.653Z,1002.67
2018-11-04T08:52:52.550Z,1002.66
2018-11-04T08:54:02.107Z,1002.64
2018-11-04T08:55:11.988Z,1002.63
2018-11-04T08:56:21.805Z,1002.62
2018-11-04T08:57:31.882Z,1002.62
2018-11-04T08:58:41.697Z,1002.56
2018-11-04T08:59:51.806Z,1002.58
2018-11-04T09:01:02.361Z,1002.57
2018-11-04T09:02:12.550Z,1002.58
2018-11-04T09:03:22.382Z,1002.6
2018-11-04T09:04:32.478Z,1002.66
2018-11-04T09:05:42.313Z,1002.64
2018-11-04T09:06:51.862Z,1002.6
2018-11-04T09:08:01.136Z,1002.63
2018-11-04T09:09:10.707Z,1002.63
2018-11-04T09:10:20.782Z,1002.64
2018-11-04T09:11:30.595Z,1002.64
2018-11-04T09:12:39.872Z,1002.67
2018-11-04T09:13:49.970Z,1002.7
2018-11-04T09:15:00.099Z,1002.68
2018-11-04T09:16:09.947Z,1002.69
2018-11-04T09:17:19.760Z,1002.61
2018-11-04T09:18:29.921Z,1002.63
2018-11-04T09:19:40.018Z,1002.62
2018-11-04T09:20:50.098Z,1002.65
2018-11-04T09:22:00.117Z,1002.6
2018-11-04T09:23:11.020Z,1002.63
2018-11-04T09:24:21.106Z,1002.63
2018-11-04T09:25:30.971Z,1002.66
2018-11-04T09:26:40.789Z,1002.65
2018-11-04T09:27:50.875Z,1002.67
2018-11-04T09:29:00.969Z,1002.71
2018-11-04T09:30:10.570Z,1002.73
2018-11-04T09:31:20.401Z,1002.72
2018-11-04T09:32:30.454Z,1002.73
2018-11-04T09:33:40.274Z,1002.76
2018-11-04T09:34:49.942Z,1002.75
2018-11-04T09:36:00.878Z,1002.78
2018-11-04T09:37:11.932Z,1002.75
2018-11-04T09:38:21.723Z,1002.75
2018-11-04T09:39:31.549Z,1002.7
2018-11-04T09:40:41.637Z,1002.74
2018-11-04T09:41:51.442Z,1002.69
2018-11-04T09:43:01.827Z,1002.66
2018-11-04T09:44:11.678Z,1002.65
2018-11-04T09:45:21.497Z,1002.68
2018-11-04T09:46:31.324Z,1002.64
2018-11-04T09:47:41.216Z,1002.67
2018-11-04T09:48:51.312Z,1002.67
2018-11-04T09:50:01.809Z,1002.67
2018-11-04T09:51:12.514Z,1002.68
2018-11-04T09:52:22.332Z,1002.64
2018-11-04T09:53:32.405Z,1002.66
2018-11-04T09:54:42.514Z,1002.64
2018-11-04T09:55:52.574Z,1002.66
2018-11-04T09:57:02.663Z,1002.63
2018-11-04T09:58:12.757Z,1002.59
2018-11-04T09:59:22.948Z,1002.62
2018-11-04T10:00:33.051Z,1002.56
2018-11-04T10:01:42.873Z,1002.54
2018-11-04T10:02:52.971Z,1002.51
2018-11-04T10:04:03.154Z,1002.53
2018-11-04T10:05:13.226Z,1002.5
2018-11-04T10:06:23.111Z,1002.45
2018-11-04T10:07:32.930Z,1002.45
2018-11-04T10:08:43.029Z,1002.5
2018-11-04T10:09:52.864Z,1002.51
2018-11-04T10:11:03.162Z,1002.52
2018-11-04T10:12:13.014Z,1002.53
2018-11-04T10:13:22.676Z,1002.47
2018-11-04T10:14:33.153Z,1002.5
2018-11-04T10:15:43.240Z,1002.45
2018-11-04T10:16:53.337Z,1002.42
2018-11-04T10:18:03.208Z,1002.43
2018-11-04T10:19:13.504Z,1002.39
2018-11-04T10:20:25.544Z,1002.42
2018-11-04T10:21:38.895Z,1002.44
2018-11-04T10:22:48.984Z,1002.47
2018-11-04T10:23:59.083Z,1002.41
2018-11-04T10:25:08.904Z,1002.41
2018-11-04T10:26:18.486Z,1002.43
2018-11-04T10:27:28.569Z,1002.4
2018-11-04T10:28:38.673Z,1002.35
2018-11-04T10:29:48.285Z,1002.34
2018-11-04T10:30:58.101Z,1002.32
2018-11-04T10:32:08.025Z,1002.28
2018-11-04T10:33:17.580Z,1002.28
2018-11-04T10:34:27.712Z,1002.31
2018-11-04T10:35:37.834Z,1002.26
2018-11-04T10:36:47.963Z,1002.28
2018-11-04T10:37:58.060Z,1002.25
2018-11-04T10:39:08.108Z,1002.26
2018-11-04T10:40:18.189Z,1002.28
2018-11-04T10:41:28.261Z,1002.28
2018-11-04T10:42:38.106Z,1002.26
2018-11-04T10:43:48.203Z,1002.21
2018-11-04T10:44:58.303Z,1002.2
2018-11-04T10:46:08.389Z,1002.24
2018-11-04T10:47:18.457Z,1002.21
2018-11-04T10:48:28.026Z,1002.24
2018-11-04T10:49:38.150Z,1002.19
2018-11-04T10:50:48.598Z,1002.2
2018-11-04T10:51:58.444Z,1002.18
2018-11-04T10:53:08.261Z,1002.18
2018-11-04T10:54:18.107Z,1002.15
2018-11-04T10:55:28.200Z,1002.13
2018-11-04T10:56:38.563Z,1002.1
2018-11-04T10:57:48.128Z,1002.07
2018-11-04T10:58:57.967Z,1002.07
2018-11-04T11:00:07.562Z,1002.11
2018-11-04T11:01:16.843Z,1002.07
2018-11-04T11:02:26.929Z,1002.04
2018-11-04T11:03:37.027Z,1002.01
2018-11-04T11:04:47.013Z,1001.96
2018-11-04T11:05:56.748Z,1001.98
2018-11-04T11:07:06.317Z,1001.95
2018-11-04T11:08:16.405Z,1001.95
2018-11-04T11:09:26.232Z,1001.97
2018-11-04T11:10:36.054Z,1001.97
2018-11-04T11:11:46.323Z,1001.93
2018-11-04T11:12:56.151Z,1002
2018-11-04T11:14:07.600Z,1001.9
2018-11-04T11:15:17.428Z,1001.93
2018-11-04T11:16:27.536Z,1001.97
2018-11-04T11:17:37.679Z,1001.95
2018-11-04T11:18:47.485Z,1001.93
2018-11-04T11:19:57.325Z,1001.94
2018-11-04T11:21:08.153Z,1001.95
2018-11-04T11:22:17.984Z,1001.89
2018-11-04T11:23:28.244Z,1001.85
2018-11-04T11:24:37.799Z,1001.86
2018-11-04T11:25:47.652Z,1001.85
2018-11-04T11:26:57.535Z,1001.86
2018-11-04T11:28:07.366Z,1001.87
2018-11-04T11:29:17.496Z,1001.85
2018-11-04T11:30:27.592Z,1001.86
2018-11-04T11:31:37.711Z,1001.8
2018-11-04T11:32:47.818Z,1001.8
2018-11-04T11:33:57.658Z,1001.78
2018-11-04T11:35:08.351Z,1001.76
2018-11-04T11:36:18.425Z,1001.81
2018-11-04T11:37:27.790Z,1001.82
2018-11-04T11:38:37.620Z,1001.81
2018-11-04T11:39:47.459Z,1001.85
2018-11-04T11:40:57.605Z,1001.8
2018-11-04T11:42:07.700Z,1001.74
2018-11-04T11:43:17.796Z,1001.77
2018-11-04T11:44:27.900Z,1001.7
2018-11-04T11:45:37.483Z,1001.68
2018-11-04T11:46:47.615Z,1001.67
2018-11-04T11:47:57.503Z,1001.67
2018-11-04T11:49:07.693Z,1001.69
2018-11-04T11:50:17.372Z,1001.68
2018-11-04T11:51:27.221Z,1001.67
2018-11-04T11:52:37.251Z,1001.69
2018-11-04T11:53:47.666Z,1001.69
2018-11-04T11:54:57.780Z,1001.73
2018-11-04T11:56:07.867Z,1001.66
2018-11-04T11:57:17.965Z,1001.6
2018-11-04T11:58:28.176Z,1001.64
2018-11-04T11:59:38.302Z,1001.62
2018-11-04T12:00:48.410Z,1001.58
2018-11-04T12:01:58.505Z,1001.55
2018-11-04T12:03:08.537Z,1001.57
2018-11-04T12:04:18.122Z,1001.56
2018-11-04T12:05:28.241Z,1001.6
2018-11-04T12:06:38.354Z,1001.61
2018-11-04T12:07:47.932Z,1001.61
2018-11-04T12:08:57.805Z,1001.61
2018-11-04T12:10:07.712Z,1001.61
2018-11-04T12:11:17.543Z,1001.55
2018-11-04T12:12:27.097Z,1001.56
2018-11-04T12:13:37.204Z,1001.55
2018-11-04T12:14:46.760Z,1001.57
2018-11-04T12:15:56.702Z,1001.55
2018-11-04T12:17:07.067Z,1001.57
2018-11-04T12:18:17.201Z,1001.54
2018-11-04T12:19:27.068Z,1001.51
2018-11-04T12:20:36.952Z,1001.47
2018-11-04T12:21:46.550Z,1001.48
2018-11-04T12:22:56.379Z,1001.49
2018-11-04T12:24:06.293Z,1001.47
2018-11-04T12:25:16.124Z,1001.44
2018-11-04T12:26:26.209Z,1001.39
2018-11-04T12:27:36.060Z,1001.4
2018-11-04T12:28:46.161Z,1001.38
2018-11-04T12:29:56.269Z,1001.41
2018-11-04T12:31:08.809Z,1001.35
2018-11-04T12:32:18.656Z,1001.34
2018-11-04T12:33:28.790Z,1001.38
2018-11-04T12:34:38.593Z,1001.35
2018-11-04T12:35:48.448Z,1001.36
2018-11-04T12:36:57.993Z,1001.39
2018-11-04T12:38:08.993Z,1001.35
2018-11-04T12:39:19.039Z,1001.35
2018-11-04T12:40:28.862Z,1001.37
2018-11-04T12:41:38.447Z,1001.37
2018-11-04T12:42:48.287Z,1001.34
2018-11-04T12:43:58.135Z,1001.38
2018-11-04T12:45:08.218Z,1001.36
2018-11-04T12:46:18.332Z,1001.32
2018-11-04T12:47:28.422Z,1001.28
2018-11-04T12:48:38.535Z,1001.31
2018-11-04T12:49:48.375Z,1001.29
2018-11-04T12:50:58.471Z,1001.26
2018-11-04T12:52:08.636Z,1001.25
2018-11-04T12:53:19.399Z,1001.23
2018-11-04T12:54:29.491Z,1001.25
2018-11-04T12:55:39.321Z,1001.2
2018-11-04T12:56:49.496Z,1001.18
2018-11-04T12:57:59.347Z,1001.2
2018-11-04T12:59:09.430Z,1001.15
2018-11-04T13:00:18.987Z,1001.12
2018-11-04T13:01:28.584Z,1001.13
2018-11-04T13:02:38.393Z,1001.16
2018-11-04T13:03:48.510Z,1001.13
2018-11-04T13:04:58.325Z,1001.18
2018-11-04T13:06:08.137Z,1001.17
2018-11-04T13:07:17.435Z,1001.18
2018-11-04T13:08:27.512Z,1001.17
2018-11-04T13:09:37.607Z,1001.19
2018-11-04T13:10:47.708Z,1001.16
2018-11-04T13:11:57.523Z,1001.21
2018-11-04T13:13:07.332Z,1001.19
2018-11-04T13:14:17.498Z,1001.21
2018-11-04T13:15:27.334Z,1001.17
2018-11-04T13:16:37.440Z,1001.17
2018-11-04T13:17:47.531Z,1001.18
2018-11-04T13:18:57.365Z,1001.13
2018-11-04T13:20:07.456Z,1001.2
2018-11-04T13:21:17.706Z,1001.2
2018-11-04T13:22:28.449Z,1001.17
2018-11-04T13:23:37.752Z,1001.14
2018-11-04T13:24:47.857Z,1001.19
2018-11-04T13:25:57.948Z,1001.17
2018-11-04T13:27:07.936Z,1001.12
2018-11-04T13:28:18.321Z,1001.11
2018-11-04T13:29:28.387Z,1001.08
2018-11-04T13:30:38.225Z,1001.03
2018-11-04T13:31:47.833Z,1001.05
2018-11-04T13:32:57.664Z,1001.02
2018-11-04T13:34:07.527Z,1001.01
2018-11-04T13:35:17.344Z,1001.01
2018-11-04T13:36:27.438Z,1000.95
2018-11-04T13:37:37.409Z,1000.92
2018-11-04T13:38:47.480Z,1000.96
2018-11-04T13:39:58.057Z,1000.96
2018-11-04T13:41:10.443Z,1000.96
2018-11-04T13:42:20.286Z,1000.92
2018-11-04T13:43:30.416Z,1000.92
2018-11-04T13:44:40.522Z,1000.89
2018-11-04T13:45:50.097Z,1000.84
2018-11-04T13:47:00.188Z,1000.82
2018-11-04T13:48:10.347Z,1000.79
2018-11-04T13:49:20.252Z,1000.83
2018-11-04T13:50:31.072Z,1000.83
2018-11-04T13:51:41.175Z,1000.81
2018-11-04T13:52:51.279Z,1000.79
2018-11-04T13:54:01.375Z,1000.82
2018-11-04T13:55:11.469Z,1000.82
2018-11-04T13:56:21.573Z,1000.81
2018-11-04T13:57:31.673Z,1000.8
2018-11-04T13:58:41.231Z,1000.84
2018-11-04T13:59:51.064Z,1000.81
2018-11-04T14:01:01.423Z,1000.81
2018-11-04T14:02:10.974Z,1000.79
2018-11-04T14:03:21.062Z,1000.81
2018-11-04T14:04:30.874Z,1000.83
2018-11-04T14:05:40.974Z,1000.82
2018-11-04T14:06:50.861Z,1000.76
2018-11-04T14:08:01.861Z,1000.73
2018-11-04T14:09:11.458Z,1000.73
2018-11-04T14:10:21.016Z,1000.73
2018-11-04T14:11:30.844Z,1000.74
2018-11-04T14:12:40.752Z,1000.73
2018-11-04T14:13:51.172Z,1000.71
2018-11-04T14:15:01.002Z,1000.7
2018-11-04T14:16:11.117Z,1000.67
2018-11-04T14:17:20.942Z,1000.68
2018-11-04T14:18:31.170Z,1000.73
2018-11-04T14:19:41.273Z,1000.71
2018-11-04T14:20:51.388Z,1000.71
2018-11-04T14:22:01.497Z,1000.67
2018-11-04T14:23:11.331Z,1000.72
2018-11-04T14:24:21.459Z,1000.7
2018-11-04T14:25:31.016Z,1000.66
2018-11-04T14:26:41.130Z,1000.67
2018-11-04T14:27:50.693Z,1000.63
2018-11-04T14:29:00.360Z,1000.61
2018-11-04T14:30:09.966Z,1000.63
2018-11-04T14:31:20.064Z,1000.56
2018-11-04T14:32:29.913Z,1000.58
2018-11-04T14:33:39.585Z,1000.56
2018-11-04T14:34:49.699Z,1000.6
2018-11-04T14:35:59.792Z,1000.64
2018-11-04T14:37:09.887Z,1000.64
2018-11-04T14:38:19.716Z,1000.59
2018-11-04T14:39:29.009Z,1000.62
2018-11-04T14:40:38.855Z,1000.65